Time;durP1;ratioP1;P1;durP2;ratioP2;P2;SDS_P1;SDS_P2;PMS_P1;PMS_P2;Temp;Humidity;BMP_temperature;BMP_pressure;BME280_temperature;BME280_humidity;BME280_pressure;Samples;Min_cycle;Max_cycle;Signal;HPM_P1;HPM_P2
2023/08/04 00:00:11;;;;;;;0.43;0.43;;;28.20;68.70;;;;;;6258274;23;20162;-83
2023/08/04 00:02:40;;;;;;;0.60;0.60;;;28.20;68.70;;;;;;6260288;23;20174;-82
2023/08/04 00:05:10;;;;;;;1.25;0.85;;;28.20;69.00;;;;;;6258187;23;20194;-83
2023/08/04 00:07:38;;;;;;;1.38;0.95;;;28.10;69.20;;;;;;6259209;23;20182;-83
2023/08/04 00:10:08;;;;;;;1.45;0.80;;;28.10;69.20;;;;;;6258099;23;20173;-83
2023/08/04 00:12:36;;;;;;;1.95;0.52;;;28.00;69.20;;;;;;6259047;23;20194;-84
2023/08/04 00:15:06;;;;;;;1.48;1.02;;;28.00;69.50;;;;;;6259704;23;20171;-82
2023/08/04 00:17:38;;;;;;;6.05;0.85;;;28.00;69.50;;;;;;6265489;23;20166;-83
2023/08/04 00:20:10;;;;;;;0.30;0.30;;;28.00;69.50;;;;;;6263549;23;20154;-82
2023/08/04 00:22:40;;;;;;;2.20;1.60;;;27.90;69.60;;;;;;6265661;23;20167;-83
2023/08/04 00:25:09;;;;;;;0.28;0.28;;;27.90;69.70;;;;;;6263605;23;20170;-84
2023/08/04 00:27:37;;;;;;;0.45;0.45;;;27.90;69.80;;;;;;6263217;23;20181;-83
2023/08/04 00:30:09;;;;;;;1.52;1.00;;;27.90;69.90;;;;;;6262165;23;20166;-83
2023/08/04 00:32:38;;;;;;;0.50;0.50;;;27.80;69.90;;;;;;6265908;23;20182;-83
2023/08/04 00:35:07;;;;;;;0.45;0.40;;;27.80;70.00;;;;;;6265392;23;20170;-83
2023/08/04 00:37:36;;;;;;;0.80;0.63;;;27.80;70.10;;;;;;6260874;23;20159;-83
2023/08/04 00:40:05;;;;;;;1.50;0.85;;;27.80;70.20;;;;;;6261942;23;20489;-83
2023/08/04 00:42:33;;;;;;;0.93;0.43;;;27.70;70.20;;;;;;6263227;23;20170;-83
2023/08/04 00:45:01;;;;;;;1.20;1.00;;;27.70;70.60;;;;;;6262020;23;20177;-84
2023/08/04 00:47:35;;;;;;;1.05;0.98;;;27.70;70.70;;;;;;6263840;23;20257;-83
2023/08/04 00:50:08;;;;;;;0.70;0.50;;;27.70;71.00;;;;;;6260803;22;20231;-83
2023/08/04 00:52:38;;;;;;;0.80;0.55;;;27.70;71.10;;;;;;6258864;23;20150;-83
2023/08/04 00:55:09;;;;;;;0.70;0.57;;;27.60;71.20;;;;;;6246205;23;20504;-84
2023/08/04 00:57:38;;;;;;;0.80;0.75;;;27.60;71.20;;;;;;6245526;23;20162;-83
2023/08/04 01:00:07;;;;;;;1.38;1.27;;;27.60;71.30;;;;;;6243304;23;20202;-83
2023/08/04 01:02:36;;;;;;;0.73;0.55;;;27.60;71.50;;;;;;6243625;23;20490;-85
2023/08/04 01:05:08;;;;;;;0.50;0.50;;;27.50;71.70;;;;;;6243464;23;20167;-83
2023/08/04 01:07:43;;;;;;;2.10;1.00;;;27.60;71.80;;;;;;6243558;23;20155;-84
2023/08/04 01:10:20;;;;;;;0.52;0.52;;;27.50;72.10;;;;;;6240972;23;20172;-84
2023/08/04 01:12:57;;;;;;;1.20;1.10;;;27.50;72.30;;;;;;6243772;23;20481;-83
2023/08/04 01:15:26;;;;;;;0.35;0.35;;;27.50;72.50;;;;;;6242795;23;20217;-83
2023/08/04 01:17:55;;;;;;;0.90;0.80;;;27.40;72.60;;;;;;6242222;23;20687;-84
2023/08/04 01:20:26;;;;;;;0.68;0.68;;;27.40;72.70;;;;;;6243299;23;20161;-85
2023/08/04 01:22:56;;;;;;;1.23;0.95;;;27.40;72.70;;;;;;6242982;23;20237;-83
2023/08/04 01:25:28;;;;;;;0.73;0.73;;;27.40;72.80;;;;;;6243439;23;20179;-84
2023/08/04 01:28:00;;;;;;;1.75;0.85;;;27.40;73.30;;;;;;6240969;23;20627;-84
2023/08/04 01:30:29;;;;;;;1.67;0.90;;;27.30;73.50;;;;;;6242135;23;20617;-84
2023/08/04 01:32:58;;;;;;;0.38;0.38;;;27.30;73.60;;;;;;6241744;23;20177;-84
2023/08/04 01:35:27;;;;;;;2.25;0.70;;;27.30;74.20;;;;;;6242788;23;20219;-83
2023/08/04 01:37:57;;;;;;;0.50;0.50;;;27.30;74.20;;;;;;6241172;23;20228;-84
2023/08/04 01:40:25;;;;;;;1.00;0.90;;;27.30;74.40;;;;;;6241312;23;20177;-83
2023/08/04 01:42:54;;;;;;;0.70;0.60;;;27.20;74.50;;;;;;6242397;23;20167;-82
2023/08/04 01:45:23;;;;;;;0.77;0.57;;;27.20;74.70;;;;;;6239208;23;20178;-83
2023/08/04 01:47:52;;;;;;;0.60;0.60;;;27.20;75.00;;;;;;6242741;23;20236;-84
2023/08/04 01:50:20;;;;;;;6.00;0.95;;;27.20;75.30;;;;;;6242040;23;20182;-84
2023/08/04 01:52:48;;;;;;;1.30;0.95;;;27.20;75.50;;;;;;6241231;23;20245;-83
2023/08/04 01:55:18;;;;;;;0.80;0.52;;;27.10;75.30;;;;;;6237632;23;20221;-84
2023/08/04 01:57:47;;;;;;;0.63;0.57;;;27.10;75.30;;;;;;6241173;23;20174;-82
2023/08/04 02:00:16;;;;;;;0.60;0.60;;;27.10;75.50;;;;;;6241460;23;20503;-84
2023/08/04 02:02:44;;;;;;;0.60;0.60;;;27.10;75.70;;;;;;6241221;23;20170;-82
2023/08/04 02:05:13;;;;;;;1.65;1.20;;;27.10;75.90;;;;;;6241325;23;20167;-83
2023/08/04 02:07:42;;;;;;;0.63;0.60;;;27.00;76.00;;;;;;6242821;23;20167;-83
2023/08/04 02:10:10;;;;;;;0.80;0.60;;;27.00;76.10;;;;;;6239767;23;20663;-85
2023/08/04 02:12:42;;;;;;;1.13;0.77;;;27.00;76.30;;;;;;6242225;23;20182;-84
2023/08/04 02:15:11;;;;;;;0.75;0.70;;;27.00;76.30;;;;;;6241569;23;20567;-82
2023/08/04 02:17:39;;;;;;;1.08;0.85;;;26.90;76.20;;;;;;6244316;23;20196;-84
2023/08/04 02:20:08;;;;;;;1.40;1.10;;;27.00;76.60;;;;;;6240124;23;20233;-84
2023/08/04 02:22:37;;;;;;;0.47;0.47;;;26.90;76.60;;;;;;6243252;23;20221;-85
2023/08/04 02:25:07;;;;;;;2.00;0.90;;;26.90;76.40;;;;;;6241540;23;20221;-84
2023/08/04 02:27:35;;;;;;;1.92;0.73;;;26.90;76.80;;;;;;6238946;23;20628;-84
2023/08/04 02:30:06;;;;;;;1.15;1.05;;;26.80;76.80;;;;;;6237956;23;20162;-85
2023/08/04 02:32:34;;;;;;;2.13;1.25;;;26.80;77.10;;;;;;6242534;23;20151;-83
2023/08/04 02:35:03;;;;;;;1.05;0.77;;;26.80;77.20;;;;;;6239253;23;20204;-83
2023/08/04 02:37:31;;;;;;;0.75;0.75;;;26.80;77.10;;;;;;6238805;23;20174;-84
2023/08/04 02:39:59;;;;;;;2.65;1.77;;;26.80;77.00;;;;;;6237647;23;20166;-84
2023/08/04 02:42:28;;;;;;;0.95;0.70;;;26.80;77.20;;;;;;6240235;23;20961;-84
2023/08/04 02:44:56;;;;;;;1.13;0.77;;;26.80;76.90;;;;;;6240505;23;20170;-83
2023/08/04 02:47:26;;;;;;;1.63;0.77;;;26.80;76.90;;;;;;6241694;23;20238;-84
2023/08/04 02:49:55;;;;;;;0.68;0.45;;;26.70;76.90;;;;;;6239922;23;20193;-84
2023/08/04 02:52:23;;;;;;;1.38;0.60;;;26.70;77.20;;;;;;6240208;23;20177;-83
2023/08/04 02:54:55;;;;;;;0.82;0.75;;;26.70;77.00;;;;;;6239076;23;20202;-83
2023/08/04 02:57:28;;;;;;;0.38;0.38;;;26.70;77.20;;;;;;6239437;23;20163;-84
2023/08/04 02:59:56;;;;;;;0.85;0.85;;;26.70;77.20;;;;;;6240655;23;20158;-85
2023/08/04 03:02:27;;;;;;;1.13;0.88;;;26.70;77.30;;;;;;6240632;23;20178;-83
2023/08/04 03:04:55;;;;;;;1.08;0.98;;;26.70;77.40;;;;;;6240235;23;20163;-83
2023/08/04 03:07:24;;;;;;;2.55;1.23;;;26.70;77.30;;;;;;6242154;23;20167;-85
2023/08/04 03:09:52;;;;;;;2.65;1.27;;;26.70;77.60;;;;;;6240460;23;20163;-83
2023/08/04 03:12:21;;;;;;;0.80;0.50;;;26.70;77.50;;;;;;6241931;23;20174;-84
2023/08/04 03:14:49;;;;;;;0.43;0.43;;;26.70;77.50;;;;;;6239737;23;20655;-86
2023/08/04 03:17:18;;;;;;;0.85;0.70;;;26.70;77.50;;;;;;6242515;23;20205;-86
2023/08/04 03:19:48;;;;;;;1.17;0.70;;;26.70;77.40;;;;;;6242273;23;20174;-85
2023/08/04 03:22:16;;;;;;;3.25;0.80;;;26.60;77.30;;;;;;6243053;23;20249;-85
2023/08/04 03:24:44;;;;;;;0.40;0.40;;;26.60;77.40;;;;;;6242817;23;20635;-82
2023/08/04 03:27:12;;;;;;;0.70;0.68;;;26.60;77.40;;;;;;6244240;23;20162;-84
2023/08/04 03:29:41;;;;;;;1.15;1.00;;;26.60;77.50;;;;;;6244070;23;20224;-84
2023/08/04 03:32:09;;;;;;;0.98;0.93;;;26.60;77.90;;;;;;6243531;23;20189;-84
2023/08/04 03:34:38;;;;;;;2.25;1.98;;;26.50;77.70;;;;;;6242002;23;20190;-83
2023/08/04 03:37:08;;;;;;;2.40;1.23;;;26.60;78.10;;;;;;6242406;23;20604;-84
2023/08/04 03:39:37;;;;;;;2.45;0.82;;;26.50;78.40;;;;;;6242326;23;20501;-83
2023/08/04 03:42:06;;;;;;;1.30;0.80;;;26.50;78.60;;;;;;6243746;23;20185;-84
2023/08/04 03:44:34;;;;;;;1.42;1.17;;;26.50;78.60;;;;;;6244802;23;20197;-83
2023/08/04 03:47:03;;;;;;;0.57;0.57;;;26.40;78.50;;;;;;6241658;23;20174;-84
2023/08/04 03:49:32;;;;;;;0.80;0.63;;;26.50;78.70;;;;;;6240326;23;20534;-82
2023/08/04 03:52:00;;;;;;;0.68;0.68;;;26.50;78.80;;;;;;6241066;23;20253;-83
2023/08/04 03:54:30;;;;;;;0.50;0.50;;;26.50;78.90;;;;;;6240989;23;20461;-83
2023/08/04 03:56:59;;;;;;;2.10;1.15;;;26.40;78.80;;;;;;6239536;23;20177;-83
2023/08/04 03:59:27;;;;;;;2.20;1.00;;;26.40;78.90;;;;;;6241015;23;20178;-85
2023/08/04 04:01:55;;;;;;;1.25;1.00;;;26.40;78.90;;;;;;6243023;23;20173;-85
2023/08/04 04:04:24;;;;;;;1.45;1.05;;;26.40;79.10;;;;;;6243870;23;20182;-85
2023/08/04 04:06:52;;;;;;;2.08;1.02;;;26.50;79.10;;;;;;6243114;23;20166;-83
2023/08/04 04:09:21;;;;;;;1.35;0.70;;;26.50;79.20;;;;;;6241982;22;20546;-85
2023/08/04 04:11:51;;;;;;;0.73;0.70;;;26.50;79.40;;;;;;6242203;23;20500;-85
2023/08/04 04:14:19;;;;;;;1.30;0.80;;;26.50;79.50;;;;;;6242718;23;20174;-85
2023/08/04 04:16:47;;;;;;;0.63;0.63;;;26.50;79.60;;;;;;6245043;23;20659;-86
2023/08/04 04:19:17;;;;;;;0.70;0.70;;;26.50;79.60;;;;;;6241176;23;20194;-84
2023/08/04 04:21:45;;;;;;;1.65;0.85;;;26.50;79.60;;;;;;6243085;23;20167;-85
2023/08/04 04:24:14;;;;;;;1.77;1.35;;;26.50;79.80;;;;;;6242340;23;20635;-82
2023/08/04 04:26:43;;;;;;;1.20;1.05;;;26.60;80.10;;;;;;6242938;23;20216;-86
2023/08/04 04:29:12;;;;;;;0.50;0.50;;;26.50;79.80;;;;;;6240426;23;20162;-85
2023/08/04 04:31:41;;;;;;;2.33;1.10;;;26.60;79.70;;;;;;6240405;23;20399;-85
2023/08/04 04:34:09;;;;;;;1.48;0.77;;;26.60;80.30;;;;;;6238097;23;20631;-84
2023/08/04 04:36:38;;;;;;;1.77;1.08;;;26.60;80.00;;;;;;6240496;23;20576;-86
2023/08/04 04:39:06;;;;;;;0.38;0.38;;;26.70;80.10;;;;;;6241958;23;20174;-85
2023/08/04 04:41:35;;;;;;;1.92;1.23;;;26.70;79.90;;;;;;6243025;23;20163;-82
2023/08/04 04:44:04;;;;;;;1.90;0.70;;;26.70;80.00;;;;;;6241790;23;20190;-85
2023/08/04 04:46:34;;;;;;;1.42;1.17;;;26.70;80.00;;;;;;6241480;23;20221;-84
2023/08/04 04:49:03;;;;;;;1.40;0.60;;;26.80;79.90;;;;;;6239171;23;20254;-82
2023/08/04 04:51:32;;;;;;;0.60;0.60;;;26.80;79.80;;;;;;6238423;23;20689;-83
2023/08/04 04:54:00;;;;;;;0.55;0.55;;;26.80;79.70;;;;;;6238362;23;20166;-82
2023/08/04 04:56:29;;;;;;;1.73;1.20;;;26.90;79.70;;;;;;6241386;23;20663;-84
2023/08/04 04:58:57;;;;;;;3.15;0.90;;;26.90;79.60;;;;;;6239281;23;20170;-84
2023/08/04 05:01:25;;;;;;;0.40;0.40;;;27.00;79.60;;;;;;6243447;23;20702;-84
2023/08/04 05:03:56;;;;;;;0.57;0.55;;;27.00;79.50;;;;;;6241825;23;20697;-83
2023/08/04 05:06:25;;;;;;;1.17;0.80;;;27.10;79.60;;;;;;6243243;23;20253;-86
2023/08/04 05:08:58;;;;;;;0.63;0.57;;;27.10;79.60;;;;;;6242857;23;20155;-83
2023/08/04 05:11:27;;;;;;;1.40;1.30;;;27.10;79.40;;;;;;6242444;23;20171;-86
2023/08/04 05:13:55;;;;;;;0.77;0.77;;;27.20;79.30;;;;;;6242748;22;20162;-84
2023/08/04 05:16:24;;;;;;;1.10;1.00;;;27.20;79.10;;;;;;6242418;23;20205;-84
2023/08/04 05:18:52;;;;;;;1.58;1.13;;;27.20;79.00;;;;;;6240978;23;20194;-83
2023/08/04 05:21:23;;;;;;;1.85;0.98;;;27.30;78.90;;;;;;6242125;23;20604;-82
2023/08/04 05:23:51;;;;;;;0.55;0.50;;;27.30;78.80;;;;;;6242065;23;20507;-83
2023/08/04 05:26:20;;;;;;;1.27;0.68;;;27.40;78.70;;;;;;6243212;22;20246;-83
2023/08/04 05:28:48;;;;;;;1.17;0.73;;;27.40;78.60;;;;;;6238153;23;20181;-82
2023/08/04 05:31:17;;;;;;;0.65;0.65;;;27.50;78.60;;;;;;6238009;23;20181;-86
2023/08/04 05:33:45;;;;;;;1.15;1.05;;;27.60;78.60;;;;;;6240366;23;20167;-84
2023/08/04 05:36:14;;;;;;;0.60;0.57;;;27.60;78.40;;;;;;6241763;23;20306;-82
2023/08/04 05:38:44;;;;;;;1.83;1.08;;;27.60;78.20;;;;;;6240450;23;20162;-84
2023/08/04 05:41:13;;;;;;;5.72;1.02;;;27.70;78.00;;;;;;6242582;23;20166;-82
2023/08/04 05:43:42;;;;;;;0.82;0.77;;;27.70;78.00;;;;;;6238846;23;20245;-82
2023/08/04 05:46:12;;;;;;;0.73;0.73;;;27.80;77.90;;;;;;6242915;23;20188;-83
2023/08/04 05:48:41;;;;;;;1.17;0.88;;;27.80;77.80;;;;;;6241420;23;20644;-84
2023/08/04 05:51:10;;;;;;;0.80;0.68;;;27.90;77.70;;;;;;6243055;23;20205;-84
2023/08/04 05:53:39;;;;;;;0.70;0.38;;;27.90;77.70;;;;;;6240318;23;20193;-84
2023/08/04 05:56:09;;;;;;;0.30;0.30;;;28.00;77.60;;;;;;6239666;23;20193;-82
2023/08/04 05:58:37;;;;;;;0.70;0.70;;;28.10;77.40;;;;;;6241943;23;20186;-82
2023/08/04 06:01:06;;;;;;;0.77;0.38;;;28.20;77.40;;;;;;6243169;23;20181;-83
2023/08/04 06:03:34;;;;;;;1.27;0.57;;;28.20;77.20;;;;;;6242506;23;20177;-82
2023/08/04 06:06:03;;;;;;;0.93;0.82;;;28.20;77.10;;;;;;6241891;23;20175;-84
2023/08/04 06:08:32;;;;;;;0.55;0.55;;;28.30;77.00;;;;;;6243790;23;20163;-85
2023/08/04 06:11:00;;;;;;;0.77;0.77;;;28.30;76.90;;;;;;6241077;23;20167;-84
2023/08/04 06:13:30;;;;;;;2.15;0.57;;;28.40;76.70;;;;;;6243172;23;20174;-85
2023/08/04 06:15:59;;;;;;;1.15;0.70;;;28.50;76.50;;;;;;6238684;23;20192;-84
2023/08/04 06:18:27;;;;;;;0.60;0.50;;;28.50;76.10;;;;;;6240567;23;20205;-82
2023/08/04 06:20:56;;;;;;;0.50;0.50;;;28.50;76.10;;;;;;6243395;23;20167;-83
2023/08/04 06:23:24;;;;;;;1.90;1.33;;;28.60;76.00;;;;;;6243116;23;20620;-83
2023/08/04 06:25:53;;;;;;;0.60;0.55;;;28.70;76.00;;;;;;6242505;23;20563;-84
2023/08/04 06:28:21;;;;;;;2.08;0.70;;;28.70;75.90;;;;;;6242804;23;20188;-84
2023/08/04 06:30:51;;;;;;;0.80;0.80;;;28.80;75.80;;;;;;6243570;23;20175;-85
2023/08/04 06:33:20;;;;;;;0.50;0.50;;;28.90;75.80;;;;;;6242240;23;20178;-83
2023/08/04 06:35:48;;;;;;;0.60;0.60;;;28.90;75.60;;;;;;6241779;23;20175;-83
2023/08/04 06:38:16;;;;;;;0.70;0.70;;;29.00;75.50;;;;;;6241390;23;20171;-85
2023/08/04 06:40:45;;;;;;;0.88;0.63;;;29.10;75.50;;;;;;6242411;23;20236;-85
2023/08/04 06:43:13;;;;;;;0.60;0.60;;;29.10;75.20;;;;;;6243253;23;20170;-83
2023/08/04 06:45:41;;;;;;;0.73;0.73;;;29.20;75.20;;;;;;6240394;23;20638;-82
2023/08/04 06:48:11;;;;;;;0.73;0.70;;;29.20;75.00;;;;;;6236808;23;20166;-80
2023/08/04 06:50:40;;;;;;;0.52;0.52;;;29.30;74.90;;;;;;6242239;23;20543;-80
2023/08/04 06:53:09;;;;;;;0.95;0.85;;;29.40;75.00;;;;;;6238908;23;20170;-80
2023/08/04 06:55:38;;;;;;;0.65;0.63;;;29.50;74.90;;;;;;6238371;23;20178;-81
2023/08/04 06:58:14;;;;;;;1.05;0.90;;;29.50;74.70;;;;;;6239466;23;20232;-80
2023/08/04 07:00:42;;;;;;;1.00;0.63;;;29.60;75.50;;;;;;6239045;23;20293;-80
2023/08/04 07:03:12;;;;;;;0.65;0.50;;;29.70;74.60;;;;;;6238167;23;20907;-81
2023/08/04 07:05:41;;;;;;;0.57;0.57;;;29.70;74.40;;;;;;6239741;23;20161;-80
2023/08/04 07:08:10;;;;;;;1.10;0.93;;;29.80;74.00;;;;;;6241718;23;20171;-81
2023/08/04 07:10:39;;;;;;;0.95;0.70;;;29.80;73.30;;;;;;6241705;23;20251;-82
2023/08/04 07:13:07;;;;;;;1.15;0.82;;;29.90;73.00;;;;;;6240362;23;20167;-81
2023/08/04 07:15:37;;;;;;;0.55;0.52;;;29.90;72.80;;;;;;6240359;23;20174;-80
2023/08/04 07:18:06;;;;;;;0.63;0.63;;;30.00;72.70;;;;;;6238656;23;20718;-81
2023/08/04 07:20:36;;;;;;;1.15;0.93;;;30.10;72.70;;;;;;6240861;23;20499;-79
2023/08/04 07:23:04;;;;;;;1.63;0.85;;;30.10;72.70;;;;;;6240702;23;20194;-83
2023/08/04 07:25:32;;;;;;;1.48;1.02;;;30.20;72.70;;;;;;6239238;23;20167;-79
2023/08/04 07:28:01;;;;;;;0.30;0.30;;;30.30;72.50;;;;;;6241713;23;20969;-80
2023/08/04 07:30:32;;;;;;;0.80;0.55;;;30.30;72.50;;;;;;6242157;23;20166;-80
2023/08/04 07:33:04;;;;;;;2.33;0.93;;;30.40;72.10;;;;;;6240424;23;20547;-81
2023/08/04 07:35:32;;;;;;;1.20;1.10;;;30.40;71.80;;;;;;6240854;23;20473;-81
2023/08/04 07:38:02;;;;;;;1.00;0.80;;;30.50;71.70;;;;;;6241952;23;20202;-82
2023/08/04 07:40:31;;;;;;;1.25;1.15;;;30.50;71.30;;;;;;6243157;23;20166;-81
2023/08/04 07:42:59;;;;;;;2.97;1.38;;;30.60;71.20;;;;;;6241276;23;20167;-80
2023/08/04 07:45:27;;;;;;;0.57;0.52;;;30.70;71.10;;;;;;6240757;23;20178;-83
2023/08/04 07:47:56;;;;;;;1.27;0.75;;;30.70;70.90;;;;;;6242104;23;20170;-84
2023/08/04 07:50:25;;;;;;;6.45;1.45;;;30.70;70.60;;;;;;6242535;23;20171;-80
2023/08/04 07:52:53;;;;;;;2.25;1.25;;;30.80;70.70;;;;;;6239321;23;20173;-81
2023/08/04 07:55:23;;;;;;;2.00;1.00;;;30.90;70.30;;;;;;6242236;23;20167;-82
2023/08/04 07:57:51;;;;;;;0.77;0.73;;;30.90;70.50;;;;;;6243470;23;20195;-81
2023/08/04 08:00:20;;;;;;;1.15;1.05;;;31.00;71.00;;;;;;6242357;23;20171;-82
2023/08/04 08:02:49;;;;;;;0.60;0.60;;;31.10;70.00;;;;;;6242098;23;20177;-81
2023/08/04 08:05:18;;;;;;;1.25;1.05;;;31.10;70.10;;;;;;6241637;22;20163;-82
2023/08/04 08:07:46;;;;;;;1.95;0.98;;;31.10;69.10;;;;;;6242969;23;20170;-80
2023/08/04 08:10:16;;;;;;;3.13;1.80;;;31.20;68.70;;;;;;6238593;23;20166;-84
2023/08/04 08:12:47;;;;;;;0.75;0.57;;;31.20;68.50;;;;;;6215812;23;20534;-80
2023/08/04 08:15:16;;;;;;;0.95;0.95;;;31.30;68.70;;;;;;6244069;23;20574;-83
2023/08/04 08:17:44;;;;;;;0.70;0.57;;;31.40;68.70;;;;;;6217113;23;20195;-82
2023/08/04 08:20:13;;;;;;;1.55;0.82;;;31.40;68.60;;;;;;6242359;23;20182;-80
2023/08/04 08:22:42;;;;;;;1.33;0.90;;;31.50;68.60;;;;;;6241736;23;20209;-80
2023/08/04 08:25:12;;;;;;;1.38;1.20;;;31.50;68.10;;;;;;6244038;23;20902;-82
2023/08/04 08:27:41;;;;;;;1.58;0.85;;;31.60;68.20;;;;;;6245082;23;20161;-81
2023/08/04 08:30:12;;;;;;;0.65;0.65;;;31.70;68.10;;;;;;6241258;23;20537;-82
2023/08/04 08:32:41;;;;;;;0.88;0.75;;;31.70;68.20;;;;;;6242912;23;20155;-81
2023/08/04 08:35:10;;;;;;;1.50;1.00;;;31.80;68.10;;;;;;6241972;23;20252;-81
2023/08/04 08:37:38;;;;;;;1.92;1.15;;;31.80;67.80;;;;;;6216239;23;20674;-81
2023/08/04 08:40:08;;;;;;;1.20;0.93;;;31.90;67.90;;;;;;6242525;23;20174;-84
2023/08/04 08:42:36;;;;;;;0.68;0.68;;;32.00;67.30;;;;;;6242888;23;20174;-83
2023/08/04 08:45:06;;;;;;;2.30;1.40;;;32.00;66.80;;;;;;6239176;23;20181;-83
2023/08/04 08:47:38;;;;;;;0.70;0.70;;;32.10;66.50;;;;;;6244409;23;20170;-85
2023/08/04 08:50:08;;;;;;;1.25;1.00;;;32.20;66.30;;;;;;6240208;23;20162;-84
2023/08/04 08:52:40;;;;;;;1.98;0.98;;;32.20;66.10;;;;;;6243833;23;20684;-83
2023/08/04 08:55:09;;;;;;;2.58;1.17;;;32.30;66.10;;;;;;6243492;23;20167;-82
2023/08/04 08:57:38;;;;;;;1.45;0.80;;;32.30;66.00;;;;;;6243421;23;20248;-81
2023/08/04 09:00:08;;;;;;;2.13;1.17;;;32.40;66.00;;;;;;6240088;23;20504;-83
2023/08/04 09:02:39;;;;;;;1.13;1.00;;;32.50;66.10;;;;;;6215780;23;20171;-83
2023/08/04 09:05:10;;;;;;;1.85;1.02;;;32.60;65.60;;;;;;6242187;23;20159;-80
2023/08/04 09:07:39;;;;;;;0.57;0.57;;;32.60;65.80;;;;;;6241536;23;20216;-81
2023/08/04 09:10:09;;;;;;;2.50;1.45;;;32.70;65.50;;;;;;6241460;23;20190;-81
2023/08/04 09:12:38;;;;;;;0.73;0.70;;;32.70;65.40;;;;;;6240744;23;20177;-82
2023/08/04 09:15:07;;;;;;;1.17;0.90;;;32.80;65.50;;;;;;6243120;23;20197;-81
2023/08/04 09:17:39;;;;;;;1.27;0.75;;;32.90;65.20;;;;;;6238620;23;20988;-82
2023/08/04 09:20:10;;;;;;;1.92;1.20;;;33.00;65.30;;;;;;6239346;23;20166;-80
2023/08/04 09:22:44;;;;;;;1.25;1.10;;;33.10;65.20;;;;;;6239651;23;20155;-81
2023/08/04 09:25:13;;;;;;;1.95;0.88;;;33.10;65.00;;;;;;6241281;23;20169;-81
2023/08/04 09:27:43;;;;;;;0.47;0.47;;;33.20;64.90;;;;;;6240618;23;20174;-81
2023/08/04 09:30:12;;;;;;;0.80;0.68;;;33.20;64.70;;;;;;6241967;23;20639;-83
2023/08/04 09:32:45;;;;;;;1.23;0.75;;;33.30;64.70;;;;;;6242376;23;20202;-82
2023/08/04 09:35:15;;;;;;;2.35;1.00;;;33.40;64.40;;;;;;6245768;23;20224;-81
2023/08/04 09:37:44;;;;;;;1.35;0.95;;;33.40;63.70;;;;;;6240479;23;20197;-83
2023/08/04 09:40:17;;;;;;;1.60;1.17;;;33.50;63.70;;;;;;6242851;23;20185;-83
2023/08/04 09:42:46;;;;;;;1.08;0.63;;;33.50;63.00;;;;;;6241128;23;20652;-81
2023/08/04 09:45:15;;;;;;;1.15;1.05;;;33.60;63.30;;;;;;6241315;23;20169;-85
2023/08/04 09:47:49;;;;;;;1.30;1.20;;;33.70;62.80;;;;;;6243128;22;20249;-81
2023/08/04 09:50:18;;;;;;;1.75;1.33;;;33.70;62.40;;;;;;6242258;23;20642;-83
2023/08/04 09:52:47;;;;;;;1.92;0.90;;;33.80;62.50;;;;;;6241478;23;20188;-82
2023/08/04 09:55:16;;;;;;;2.17;1.10;;;33.80;62.20;;;;;;6242273;23;20189;-85
2023/08/04 09:57:45;;;;;;;1.48;0.82;;;33.90;62.20;;;;;;6240811;23;20177;-85
2023/08/04 10:00:15;;;;;;;1.25;0.93;;;34.00;61.80;;;;;;6241346;23;20661;-84
2023/08/04 10:02:44;;;;;;;3.13;1.10;;;34.10;62.30;;;;;;6242132;23;20181;-85
2023/08/04 10:05:15;;;;;;;1.35;0.95;;;34.10;61.30;;;;;;6239317;23;20163;-81
2023/08/04 10:07:44;;;;;;;0.52;0.50;;;34.10;61.40;;;;;;6241621;23;20551;-84
2023/08/04 10:10:13;;;;;;;1.55;0.85;;;34.20;61.00;;;;;;6243356;23;20234;-85
2023/08/04 10:12:42;;;;;;;0.60;0.60;;;34.30;61.30;;;;;;6242720;23;20166;-80
2023/08/04 10:15:10;;;;;;;1.33;0.65;;;34.40;60.30;;;;;;6241715;23;20171;-81
2023/08/04 10:17:42;;;;;;;1.25;1.15;;;34.40;60.60;;;;;;6238679;23;21253;-81
2023/08/04 10:20:11;;;;;;;0.60;0.60;;;34.50;61.00;;;;;;6237963;23;20236;-79
2023/08/04 10:22:44;;;;;;;1.70;1.13;;;34.50;60.90;;;;;;6241901;23;20808;-81
2023/08/04 10:25:15;;;;;;;4.35;1.02;;;34.60;60.00;;;;;;6240554;23;20159;-79
2023/08/04 10:27:51;;;;;;;0.90;0.90;;;34.70;60.10;;;;;;6241540;23;20178;-79
2023/08/04 10:30:21;;;;;;;1.23;1.15;;;34.70;60.10;;;;;;6239889;23;20174;-84
2023/08/04 10:33:10;;;;;;;2.00;1.23;;;34.70;59.10;;;;;;6238476;23;20169;-83
2023/08/04 10:36:07;;;;;;;0.90;0.90;;;34.90;58.90;;;;;;6240317;23;20540;-84
2023/08/04 10:38:49;;;;;;;1.23;0.93;;;35.00;59.20;;;;;;6239888;23;20673;-85
2023/08/04 10:41:18;;;;;;;0.77;0.57;;;35.00;58.70;;;;;;6239125;23;20157;-84
2023/08/04 10:44:00;;;;;;;1.40;0.80;;;35.10;58.60;;;;;;6240043;23;20249;-83
2023/08/04 10:46:29;;;;;;;1.30;0.68;;;35.20;58.40;;;;;;6239062;23;20159;-82
2023/08/04 10:49:01;;;;;;;1.08;0.80;;;35.30;58.70;;;;;;6241789;23;20154;-86
2023/08/04 10:51:30;;;;;;;1.25;0.77;;;35.40;58.80;;;;;;6242483;23;20501;-85
2023/08/04 10:54:00;;;;;;;1.02;0.93;;;35.40;57.90;;;;;;6239084;23;20189;-85
2023/08/04 10:56:34;;;;;;;1.80;1.30;;;35.40;57.30;;;;;;6243356;23;20249;-85
2023/08/04 10:59:08;;;;;;;1.45;1.30;;;35.40;56.20;;;;;;6239525;23;20678;-84
2023/08/04 11:01:39;;;;;;;0.85;0.63;;;35.50;56.60;;;;;;6241629;23;20616;-83
2023/08/04 11:04:08;;;;;;;1.65;0.95;;;35.60;56.90;;;;;;6238336;22;20257;-84
2023/08/04 11:06:37;;;;;;;1.20;0.95;;;35.70;56.80;;;;;;6242570;23;20511;-82
2023/08/04 11:09:08;;;;;;;2.17;1.10;;;35.70;56.30;;;;;;6243154;23;20173;-82
2023/08/04 11:11:37;;;;;;;2.08;1.15;;;35.80;56.50;;;;;;6239582;22;20687;-83
2023/08/04 11:14:07;;;;;;;0.90;0.82;;;35.80;56.20;;;;;;6238564;23;20176;-86
2023/08/04 11:16:36;;;;;;;1.67;0.80;;;35.90;56.30;;;;;;6241143;23;20174;-84
2023/08/04 11:19:08;;;;;;;0.70;0.70;;;35.90;56.20;;;;;;6239096;23;20194;-82
2023/08/04 11:21:36;;;;;;;2.17;1.33;;;36.00;55.70;;;;;;6242019;23;20150;-83
2023/08/04 11:24:11;;;;;;;0.77;0.75;;;36.00;55.20;;;;;;6238341;23;20217;-83
2023/08/04 11:26:39;;;;;;;1.75;0.80;;;36.10;54.80;;;;;;6237336;23;20155;-82
2023/08/04 11:29:08;;;;;;;1.55;0.93;;;36.20;55.00;;;;;;6234940;23;20208;-83
2023/08/04 11:31:36;;;;;;;1.08;0.95;;;36.30;55.00;;;;;;6239932;23;20166;-82
2023/08/04 11:34:05;;;;;;;1.70;1.02;;;36.30;54.60;;;;;;6237675;23;20209;-82
2023/08/04 11:36:33;;;;;;;1.27;1.00;;;36.40;54.70;;;;;;6240329;23;20227;-84
2023/08/04 11:39:02;;;;;;;1.80;1.38;;;36.40;54.70;;;;;;6241094;23;20200;-84
2023/08/04 11:41:32;;;;;;;1.38;1.20;;;36.50;54.80;;;;;;6244893;23;20169;-84
2023/08/04 11:44:00;;;;;;;0.68;0.60;;;36.60;54.80;;;;;;6241122;23;20233;-85
2023/08/04 11:46:29;;;;;;;0.95;0.68;;;36.60;54.40;;;;;;6244398;23;20220;-84
2023/08/04 11:48:58;;;;;;;0.75;0.75;;;36.70;54.20;;;;;;6243062;23;20178;-84
2023/08/04 11:51:26;;;;;;;0.68;0.60;;;36.70;53.90;;;;;;6244555;23;20167;-83
2023/08/04 11:53:55;;;;;;;1.52;0.95;;;36.80;53.70;;;;;;6239777;23;20166;-83
2023/08/04 11:56:24;;;;;;;0.75;0.70;;;36.80;53.90;;;;;;6242822;23;20177;-83
2023/08/04 11:59:11;;;;;;;1.23;1.00;;;36.90;53.90;;;;;;6242578;23;20257;-82
2023/08/04 12:01:40;;;;;;;1.60;1.30;;;36.90;53.60;;;;;;6244929;23;20161;-82
2023/08/04 12:04:28;;;;;;;1.77;1.52;;;37.00;53.60;;;;;;6240689;23;20178;-83
2023/08/04 12:07:01;;;;;;;3.03;0.95;;;37.00;52.60;;;;;;6242625;23;20177;-83
2023/08/04 12:09:30;;;;;;;0.40;0.40;;;37.10;52.60;;;;;;6240961;23;20543;-82
2023/08/04 12:11:59;;;;;;;1.33;0.60;;;37.20;52.70;;;;;;6243075;23;20174;-82
2023/08/04 12:14:29;;;;;;;0.70;0.70;;;37.10;52.50;;;;;;6242035;23;20675;-83
2023/08/04 12:16:59;;;;;;;1.92;1.10;;;37.20;52.50;;;;;;6242994;23;20170;-82
2023/08/04 12:19:29;;;;;;;6.30;0.93;;;37.20;51.30;;;;;;6241030;23;20202;-86
2023/08/04 12:22:00;;;;;;;1.48;1.20;;;37.30;51.50;;;;;;6242502;23;20163;-86
2023/08/04 12:24:29;;;;;;;1.27;0.68;;;37.30;51.10;;;;;;6242099;23;20221;-87
2023/08/04 12:26:58;;;;;;;1.88;1.35;;;37.30;50.90;;;;;;6244904;23;20170;-87
2023/08/04 12:29:28;;;;;;;1.48;0.95;;;37.40;51.20;;;;;;6242278;23;20170;-86
2023/08/04 12:31:56;;;;;;;3.33;0.85;;;37.50;51.00;;;;;;6243616;23;20170;-86
2023/08/04 12:34:25;;;;;;;1.00;0.88;;;37.40;50.70;;;;;;6242753;23;20190;-86
2023/08/04 12:36:55;;;;;;;1.08;0.70;;;37.40;51.00;;;;;;6244054;23;20220;-89
2023/08/04 12:39:58;;;;;;;1.02;0.93;;;37.50;50.90;;;;;;6245954;23;20190;-91
2023/08/04 12:42:26;;;;;;;1.33;1.23;;;37.30;47.10;;;;;;6245028;23;20484;-85
2023/08/04 12:44:56;;;;;;;0.57;0.57;;;37.30;48.60;;;;;;6241557;23;20616;-84
2023/08/04 12:47:24;;;;;;;2.10;1.90;;;37.30;48.90;;;;;;6242554;23;20174;-84
2023/08/04 12:49:53;;;;;;;1.23;0.90;;;37.20;49.40;;;;;;6241161;23;20674;-85
2023/08/04 12:52:21;;;;;;;0.85;0.75;;;37.20;49.90;;;;;;6244274;23;20202;-86
2023/08/04 12:54:50;;;;;;;1.15;0.88;;;37.20;49.90;;;;;;6242113;23;20166;-85
2023/08/04 12:57:18;;;;;;;0.90;0.90;;;37.30;49.80;;;;;;6240256;23;20174;-84
2023/08/04 12:59:47;;;;;;;1.88;1.48;;;37.30;49.50;;;;;;6241090;23;20187;-87